createdAt,value
2023-03-13T08:05:36.644Z,47.48
2023-03-13T08:08:05.282Z,48.14
2023-03-13T08:10:32.965Z,48.27
2023-03-13T08:13:00.310Z,47.51
2023-03-13T08:15:28.225Z,47.45
2023-03-13T08:18:16.608Z,47.80
2023-03-13T08:20:47.381Z,46.59
2023-03-13T08:23:22.680Z,47.02
2023-03-13T08:25:52.871Z,46.59
2023-03-13T08:28:43.907Z,46.28
2023-03-13T08:31:13.922Z,45.27
2023-03-13T08:34:04.507Z,44.34
2023-03-13T08:36:35.205Z,44.05
2023-03-13T08:39:17.261Z,42.60
2023-03-13T08:41:44.946Z,43.30
2023-03-13T08:44:17.438Z,42.01
2023-03-13T08:47:07.483Z,41.08
2023-03-13T08:49:35.025Z,40.74
2023-03-13T08:52:05.230Z,40.74
2023-03-13T08:54:33.799Z,40.34
2023-03-13T08:57:01.607Z,39.31
2023-03-13T08:59:35.454Z,39.24
2023-03-13T09:02:04.981Z,38.95
2023-03-13T09:04:33.384Z,38.08
2023-03-13T09:07:05.196Z,38.90
2023-03-13T09:10:17.348Z,37.90
2023-03-13T11:22:19.446Z,24.11
2023-03-13T11:25:13.557Z,23.11
2023-03-13T11:28:16.370Z,23.04
2023-03-13T11:31:14.120Z,22.81
2023-03-13T11:34:25.632Z,22.62
2023-03-13T11:37:03.662Z,21.82
2023-03-13T11:39:39.869Z,21.99
2023-03-13T11:43:21.802Z,22.47
2023-03-13T11:46:31.352Z,22.15
2023-03-13T11:49:08.587Z,21.87
2023-03-13T11:52:01.965Z,21.92
2023-03-13T11:54:28.940Z,22.77
2023-03-13T11:57:04.847Z,22.65
2023-03-13T11:59:58.742Z,22.66
2023-03-13T12:02:34.393Z,21.69
2023-03-13T12:05:08.607Z,21.86
2023-03-13T12:07:52.357Z,20.62
2023-03-13T12:10:30.045Z,20.24
2023-03-13T12:13:16.143Z,20.39
2023-03-13T12:15:51.397Z,20.02
2023-03-13T12:19:25.223Z,20.43
2023-03-13T12:21:56.829Z,21.51
2023-03-13T12:24:51.784Z,21.91
2023-03-13T12:27:44.291Z,19.89
2023-03-13T12:30:33.209Z,19.46
2023-03-13T12:33:24.229Z,19.52
2023-03-13T12:36:07.598Z,19.33
2023-03-13T12:38:40.928Z,19.24
2023-03-13T12:41:30.807Z,19.27
2023-03-13T12:44:08.274Z,18.53
2023-03-13T12:47:03.737Z,18.65
2023-03-13T12:49:36.645Z,18.74
2023-03-13T12:52:36.884Z,18.42
2023-03-13T12:55:42.702Z,18.28
2023-03-13T12:58:28.067Z,18.42
2023-03-13T13:01:04.577Z,16.80
2023-03-13T13:03:49.866Z,16.90
2023-03-13T13:06:18.810Z,16.81
2023-03-13T13:08:54.884Z,16.73
2023-03-13T13:11:36.702Z,16.34
2023-03-13T13:14:27.247Z,17.03
2023-03-13T13:17:18.027Z,16.67
2023-03-13T13:19:47.283Z,16.34
2023-03-13T13:22:36.121Z,16.71
2023-03-13T13:25:09.679Z,16.93
2023-03-13T13:27:36.534Z,16.79
2023-03-13T15:14:20.536Z,25.66
2023-03-13T18:04:40.416Z,40.22
2023-03-13T22:06:47.369Z,54.23
2023-03-13T22:09:23.036Z,54.63
2023-03-13T22:12:09.890Z,55.02
2023-03-13T22:14:40.033Z,56.74
2023-03-13T22:17:29.724Z,58.02
2023-03-13T22:20:45.729Z,57.12
2023-03-13T22:23:25.979Z,57.52
2023-03-13T22:26:01.506Z,58.00
2023-03-13T22:29:11.718Z,57.09
2023-03-13T22:31:48.881Z,57.60
2023-03-13T22:34:57.353Z,58.07
2023-03-13T22:37:54.546Z,59.03
2023-03-13T22:40:46.609Z,58.92
2023-03-13T22:43:29.855Z,59.23
2023-03-13T22:46:41.394Z,58.81
2023-03-13T22:49:09.827Z,58.92
2023-03-13T22:51:38.583Z,58.66
2023-03-13T22:54:10.517Z,58.85
2023-03-13T22:56:44.468Z,59.63
2023-03-13T22:59:14.643Z,58.78
2023-03-13T23:01:45.017Z,58.73
2023-03-13T23:04:14.637Z,60.01
2023-03-13T23:06:53.963Z,60.28
2023-03-13T23:09:27.128Z,61.59
2023-03-13T23:11:59.977Z,60.51
2023-03-13T23:14:42.501Z,61.58
2023-03-13T23:17:14.722Z,61.76
2023-03-13T23:19:44.585Z,62.96
2023-03-13T23:22:43.787Z,62.31
2023-03-13T23:25:15.745Z,61.66
2023-03-13T23:28:05.937Z,62.18
2023-03-13T23:30:36.939Z,62.11
2023-03-13T23:33:08.113Z,64.13
2023-03-13T23:35:44.091Z,65.06
2023-03-13T23:38:23.195Z,65.26
2023-03-13T23:40:54.560Z,65.29
2023-03-13T23:44:09.930Z,64.81
2023-03-13T23:47:17.535Z,64.49
2023-03-13T23:49:51.327Z,65.89
2023-03-13T23:52:36.313Z,64.68
2023-03-13T23:55:10.026Z,64.06
2023-03-13T23:58:00.662Z,65.03
